Time;durP1;ratioP1;P1;durP2;ratioP2;P2;SDS_P1;SDS_P2;PMS_P1;PMS_P2;Temp;Humidity;BMP_temperature;BMP_pressure;BME280_temperature;BME280_humidity;BME280_pressure;Samples;Min_cycle;Max_cycle;Signal;HPM_P1;HPM_P2
2021/01/10 17:01:15;;;;;;;;;;;-1.10;99.90;;;;;;5050549;22;20327;31
2021/01/10 17:03:46;;;;;;;;;;;-1.10;99.90;;;;;;5116277;22;21062;-90
2021/01/10 17:06:13;;;;;;;;;;;-1.20;99.90;;;;;;5037342;28;20007;-88
2021/01/10 17:08:38;;;;;;;;;;;-1.20;99.90;;;;;;5037699;28;20286;-88
2021/01/10 17:11:04;;;;;;;;;;;-1.20;99.90;;;;;;5030587;28;20000;-88
2021/01/10 17:13:30;;;;;;;;;;;-1.30;99.90;;;;;;5028680;28;19944;-89
2021/01/10 17:16:06;;;;;;;;;;;-1.30;99.90;;;;;;5032013;28;20398;-89
2021/01/10 17:18:32;;;;;;;;;;;-1.30;99.90;;;;;;5038847;28;19913;-89
2021/01/10 17:20:58;;;;;;;;;;;-1.30;99.90;;;;;;5163883;23;20015;-89
2021/01/10 17:23:24;;;;;;;;;;;-1.30;99.90;;;;;;5076043;28;19976;-90
2021/01/10 17:35:33;;;;;;;;;;;-1.40;99.90;;;;;;5058691;28;19928;-86
2021/01/10 17:37:58;;;;;;;;;;;-1.40;99.90;;;;;;5035998;28;19916;-86
2021/01/10 17:40:24;;;;;;;;;;;-1.50;99.90;;;;;;5167591;23;19952;-90
2021/01/10 17:42:51;;;;;;;;;;;-1.50;99.90;;;;;;5200332;22;19924;-86
2021/01/10 17:45:19;;;;;;;;;;;-1.50;99.90;;;;;;5029341;28;19921;-86
2021/01/10 17:47:46;;;;;;;;;;;-1.50;99.90;;;;;;5026846;28;19912;-86
2021/01/10 17:50:12;;;;;;;;;;;-1.60;99.90;;;;;;5030615;28;19917;-87
2021/01/10 17:52:38;;;;;;;;;;;-1.60;99.90;;;;;;5022621;28;20261;-86
2021/01/10 17:57:39;;;;;;;;;;;-1.60;99.90;;;;;;5202789;22;19933;-86
2021/01/10 18:00:08;;;;;;;;;;;-1.70;99.90;;;;;;4998431;28;19918;-86
2021/01/10 18:02:34;;;;;;;;;;;-1.70;99.90;;;;;;4986169;28;20050;-86
2021/01/10 18:05:02;;;;;;;;;;;-1.70;99.90;;;;;;5001149;28;19956;-86
2021/01/10 18:07:29;;;;;;;;;;;-1.80;99.90;;;;;;4980260;28;20415;-86
2021/01/10 18:10:00;;;;;;;;;;;-1.80;99.90;;;;;;5025886;28;19916;-86
2021/01/10 18:12:26;;;;;;;;;;;-1.80;99.90;;;;;;5017271;28;19944;-86
2021/01/10 18:17:26;;;;;;;;;;;-1.80;99.90;;;;;;5039757;28;19983;-89
2021/01/10 18:19:53;;;;;;;;;;;-1.80;99.90;;;;;;5150202;22;20596;-84
2021/01/10 18:22:18;;;;;;;;;;;-1.80;99.90;;;;;;5268393;22;19925;-86
2021/01/10 18:24:45;;;;;;;;;;;-1.80;99.90;;;;;;5024834;28;19924;-86
2021/01/10 18:27:10;;;;;;;;;;;-1.90;99.90;;;;;;5027898;28;20003;-86
2021/01/10 18:29:36;;;;;;;;;;;-1.90;99.90;;;;;;5029446;28;20435;-86
2021/01/10 18:34:38;;;;;;;;;;;-1.90;99.90;;;;;;5368245;22;19933;-88
2021/01/10 18:37:04;;;;;;;;;;;-1.90;99.90;;;;;;5025236;28;19943;-92
2021/01/10 18:39:30;;;;;;;;;;;-1.90;99.90;;;;;;5139571;22;19925;-87
2021/01/10 18:44:32;;;;;;;;;;;-2.00;99.90;;;;;;5185920;22;19975;-89
2021/01/10 18:47:06;;;;;;;;;;;-2.00;99.90;;;;;;5045387;28;20012;-89
2021/01/10 18:49:34;;;;;;;;;;;-2.00;99.90;;;;;;5040586;28;20276;-89
2021/01/10 18:52:00;;;;;;;;;;;-2.10;99.90;;;;;;5042282;28;19943;-90
2021/01/10 18:54:26;;;;;;;;;;;-2.00;99.90;;;;;;5045163;28;19913;-90
2021/01/10 18:56:51;;;;;;;;;;;-2.10;99.90;;;;;;5045476;28;19920;-89
2021/01/10 18:59:19;;;;;;;;;;;-2.10;99.90;;;;;;5053396;28;19956;-90
2021/01/10 19:04:37;;;;;;;;;;;-2.10;99.90;;;;;;5170309;22;20399;-86
2021/01/10 19:07:05;;;;;;;;;;;-2.10;99.90;;;;;;5171983;23;19928;-85
2021/01/10 19:09:32;;;;;;;;;;;-2.10;99.90;;;;;;5166341;22;19932;-86
2021/01/10 19:11:57;;;;;;;;;;;-2.10;99.90;;;;;;5139995;22;20041;-86
2021/01/10 19:14:26;;;;;;;;;;;-2.20;99.90;;;;;;4995641;28;20412;-86
2021/01/10 19:17:04;;;;;;;;;;;-2.10;99.90;;;;;;5012561;28;19960;-86
2021/01/10 19:19:32;;;;;;;;;;;-2.20;99.90;;;;;;5020512;28;19909;-86
2021/01/10 19:22:04;;;;;;;;;;;-2.20;99.90;;;;;;5489748;22;19933;-85
2021/01/10 19:24:33;;;;;;;;;;;-2.20;99.90;;;;;;5502084;22;20150;31
